sensor_id;sensor_type;location;lat;lon;timestamp;pressure;altitude;pressure_sealevel;temperature;humidity
11952;BME280;6036;41.840;23.486;2022-07-30T00:01:50;90706.88;;;23.83;46.66
11952;BME280;6036;41.840;23.486;2022-07-30T00:04:16;90707.47;;;23.94;47.18
11952;BME280;6036;41.840;23.486;2022-07-30T00:06:41;90709.63;;;23.79;46.61
11952;BME280;6036;41.840;23.486;2022-07-30T00:09:07;90710.44;;;23.76;47.04
11952;BME280;6036;41.840;23.486;2022-07-30T00:11:33;90704.16;;;23.86;46.65
11952;BME280;6036;41.840;23.486;2022-07-30T00:13:58;90705.97;;;23.70;46.78
11952;BME280;6036;41.840;23.486;2022-07-30T00:16:24;90699.56;;;23.64;46.65
11952;BME280;6036;41.840;23.486;2022-07-30T00:18:49;90694.38;;;23.53;47.55
11952;BME280;6036;41.840;23.486;2022-07-30T00:21:15;90692.38;;;23.34;48.12
11952;BME280;6036;41.840;23.486;2022-07-30T00:23:40;90697.47;;;23.52;47.63
11952;BME280;6036;41.840;23.486;2022-07-30T00:26:06;90688.00;;;23.70;47.19
11952;BME280;6036;41.840;23.486;2022-07-30T00:28:31;90687.16;;;23.77;47.16
11952;BME280;6036;41.840;23.486;2022-07-30T00:30:56;90686.94;;;23.87;47.15
11952;BME280;6036;41.840;23.486;2022-07-30T00:33:22;90687.94;;;23.97;46.71
11952;BME280;6036;41.840;23.486;2022-07-30T00:35:47;90687.47;;;24.02;46.46
11952;BME280;6036;41.840;23.486;2022-07-30T00:38:13;90682.81;;;24.06;46.22
11952;BME280;6036;41.840;23.486;2022-07-30T00:40:39;90683.81;;;23.92;47.27
11952;BME280;6036;41.840;23.486;2022-07-30T00:43:05;90678.31;;;23.57;47.71
11952;BME280;6036;41.840;23.486;2022-07-30T00:45:30;90680.81;;;23.44;48.25
11952;BME280;6036;41.840;23.486;2022-07-30T00:47:55;90675.41;;;23.48;48.65
11952;BME280;6036;41.840;23.486;2022-07-30T00:50:22;90674.25;;;23.49;48.60
11952;BME280;6036;41.840;23.486;2022-07-30T00:52:48;90681.03;;;23.76;47.80
11952;BME280;6036;41.840;23.486;2022-07-30T00:55:14;90668.25;;;23.64;48.31
11952;BME280;6036;41.840;23.486;2022-07-30T00:57:40;90661.63;;;23.49;48.15
11952;BME280;6036;41.840;23.486;2022-07-30T01:00:08;90664.97;;;23.57;48.80
11952;BME280;6036;41.840;23.486;2022-07-30T01:02:34;90665.72;;;23.57;48.44
11952;BME280;6036;41.840;23.486;2022-07-30T01:05:00;90667.63;;;23.57;48.05
11952;BME280;6036;41.840;23.486;2022-07-30T01:07:25;90670.72;;;23.55;48.64
11952;BME280;6036;41.840;23.486;2022-07-30T01:09:51;90670.63;;;23.59;48.41
11952;BME280;6036;41.840;23.486;2022-07-30T01:12:19;90671.69;;;23.42;48.84
11952;BME280;6036;41.840;23.486;2022-07-30T01:14:47;90669.47;;;23.37;48.63
11952;BME280;6036;41.840;23.486;2022-07-30T01:17:14;90663.53;;;23.25;48.86
11952;BME280;6036;41.840;23.486;2022-07-30T01:19:41;90671.16;;;23.23;49.57
11952;BME280;6036;41.840;23.486;2022-07-30T01:24:46;90658.44;;;22.81;50.47
11952;BME280;6036;41.840;23.486;2022-07-30T01:27:16;90662.59;;;22.52;51.51
11952;BME280;6036;41.840;23.486;2022-07-30T01:29:44;90657.50;;;22.64;51.09
11952;BME280;6036;41.840;23.486;2022-07-30T01:32:12;90660.19;;;22.61;51.15
11952;BME280;6036;41.840;23.486;2022-07-30T01:34:39;90653.78;;;22.55;51.04
11952;BME280;6036;41.840;23.486;2022-07-30T01:37:07;90653.44;;;22.83;50.83
11952;BME280;6036;41.840;23.486;2022-07-30T01:39:35;90650.22;;;22.95;50.41
11952;BME280;6036;41.840;23.486;2022-07-30T01:42:01;90654.16;;;22.87;50.90
11952;BME280;6036;41.840;23.486;2022-07-30T01:44:30;90649.41;;;22.72;50.80
11952;BME280;6036;41.840;23.486;2022-07-30T01:46:57;90662.19;;;22.53;51.64
11952;BME280;6036;41.840;23.486;2022-07-30T01:49:23;90654.38;;;22.70;51.25
11952;BME280;6036;41.840;23.486;2022-07-30T01:51:50;90651.47;;;22.57;51.54
11952;BME280;6036;41.840;23.486;2022-07-30T01:54:17;90643.13;;;22.55;51.20
11952;BME280;6036;41.840;23.486;2022-07-30T01:56:46;90637.19;;;22.44;51.76
11952;BME280;6036;41.840;23.486;2022-07-30T01:59:13;90643.47;;;22.27;52.12
11952;BME280;6036;41.840;23.486;2022-07-30T02:01:40;90640.09;;;22.53;51.02
11952;BME280;6036;41.840;23.486;2022-07-30T02:04:06;90630.94;;;22.54;51.14
11952;BME280;6036;41.840;23.486;2022-07-30T02:06:38;90634.06;;;22.49;51.25
11952;BME280;6036;41.840;23.486;2022-07-30T02:09:05;90634.31;;;22.28;51.66
11952;BME280;6036;41.840;23.486;2022-07-30T02:11:36;90644.44;;;22.40;51.81
11952;BME280;6036;41.840;23.486;2022-07-30T02:14:26;90639.81;;;22.14;52.28
11952;BME280;6036;41.840;23.486;2022-07-30T02:16:54;90645.06;;;21.83;52.92
11952;BME280;6036;41.840;23.486;2022-07-30T02:19:23;90645.34;;;21.92;53.08
11952;BME280;6036;41.840;23.486;2022-07-30T02:21:58;90649.16;;;22.29;52.02
11952;BME280;6036;41.840;23.486;2022-07-30T02:24:27;90635.84;;;22.29;52.22
11952;BME280;6036;41.840;23.486;2022-07-30T02:26:56;90625.25;;;22.22;52.55
11952;BME280;6036;41.840;23.486;2022-07-30T02:29:25;90635.00;;;22.01;53.35
11952;BME280;6036;41.840;23.486;2022-07-30T02:31:53;90638.72;;;22.08;52.88
11952;BME280;6036;41.840;23.486;2022-07-30T02:34:22;90627.78;;;22.02;53.21
11952;BME280;6036;41.840;23.486;2022-07-30T02:36:50;90618.50;;;22.14;52.88
11952;BME280;6036;41.840;23.486;2022-07-30T02:39:16;90623.38;;;22.19;53.04
11952;BME280;6036;41.840;23.486;2022-07-30T02:41:44;90618.22;;;22.05;52.80
11952;BME280;6036;41.840;23.486;2022-07-30T02:44:10;90612.47;;;22.10;53.07
11952;BME280;6036;41.840;23.486;2022-07-30T02:46:36;90612.16;;;22.00;53.10
11952;BME280;6036;41.840;23.486;2022-07-30T02:49:04;90612.47;;;22.06;52.73
11952;BME280;6036;41.840;23.486;2022-07-30T02:51:31;90606.06;;;22.00;53.52
11952;BME280;6036;41.840;23.486;2022-07-30T02:53:59;90611.03;;;21.98;53.04
11952;BME280;6036;41.840;23.486;2022-07-30T02:56:26;90611.38;;;22.03;53.06
11952;BME280;6036;41.840;23.486;2022-07-30T02:58:53;90614.13;;;21.96;52.75
11952;BME280;6036;41.840;23.486;2022-07-30T03:01:20;90610.16;;;22.12;52.01
11952;BME280;6036;41.840;23.486;2022-07-30T03:03:47;90607.19;;;22.02;52.29
11952;BME280;6036;41.840;23.486;2022-07-30T03:06:14;90605.03;;;21.90;53.06
11952;BME280;6036;41.840;23.486;2022-07-30T03:08:43;90607.28;;;21.95;52.78
11952;BME280;6036;41.840;23.486;2022-07-30T03:11:10;90603.28;;;22.11;52.39
11952;BME280;6036;41.840;23.486;2022-07-30T03:13:36;90605.44;;;22.23;51.59
11952;BME280;6036;41.840;23.486;2022-07-30T03:16:05;90607.25;;;22.29;51.76
11952;BME280;6036;41.840;23.486;2022-07-30T03:18:33;90610.84;;;22.16;52.28
11952;BME280;6036;41.840;23.486;2022-07-30T03:21:00;90611.03;;;22.01;53.07
11952;BME280;6036;41.840;23.486;2022-07-30T03:23:27;90612.56;;;21.99;52.86
11952;BME280;6036;41.840;23.486;2022-07-30T03:25:56;90605.16;;;21.76;53.62
11952;BME280;6036;41.840;23.486;2022-07-30T03:28:24;90611.81;;;21.98;53.12
11952;BME280;6036;41.840;23.486;2022-07-30T03:30:51;90613.28;;;22.03;52.86
11952;BME280;6036;41.840;23.486;2022-07-30T03:33:18;90609.41;;;22.08;52.42
11952;BME280;6036;41.840;23.486;2022-07-30T03:35:44;90614.22;;;21.86;53.50
11952;BME280;6036;41.840;23.486;2022-07-30T03:38:12;90607.41;;;21.81;53.17
11952;BME280;6036;41.840;23.486;2022-07-30T03:40:40;90605.00;;;21.94;52.93
11952;BME280;6036;41.840;23.486;2022-07-30T03:43:08;90604.06;;;22.08;52.04
11952;BME280;6036;41.840;23.486;2022-07-30T03:45:36;90604.06;;;22.08;51.95
11952;BME280;6036;41.840;23.486;2022-07-30T03:48:03;90610.00;;;21.92;52.79
11952;BME280;6036;41.840;23.486;2022-07-30T03:50:29;90608.69;;;22.07;52.58
11952;BME280;6036;41.840;23.486;2022-07-30T03:52:55;90609.38;;;22.11;52.77
11952;BME280;6036;41.840;23.486;2022-07-30T03:55:21;90611.53;;;22.20;52.25
11952;BME280;6036;41.840;23.486;2022-07-30T03:57:47;90611.53;;;22.20;52.15
11952;BME280;6036;41.840;23.486;2022-07-30T04:00:14;90621.63;;;22.05;52.66
11952;BME280;6036;41.840;23.486;2022-07-30T04:02:43;90616.44;;;22.25;51.90
11952;BME280;6036;41.840;23.486;2022-07-30T04:05:13;90628.78;;;22.42;51.31
11952;BME280;6036;41.840;23.486;2022-07-30T04:07:39;90630.34;;;22.39;51.36
11952;BME280;6036;41.840;23.486;2022-07-30T04:10:05;90632.31;;;22.35;51.61
11952;BME280;6036;41.840;23.486;2022-07-30T04:12:31;90623.06;;;21.76;53.49
11952;BME280;6036;41.840;23.486;2022-07-30T04:14:56;90622.91;;;21.93;53.08
11952;BME280;6036;41.840;23.486;2022-07-30T04:17:30;90632.31;;;21.64;53.98
11952;BME280;6036;41.840;23.486;2022-07-30T04:20:04;90627.78;;;21.13;55.38
11952;BME280;6036;41.840;23.486;2022-07-30T04:22:33;90627.84;;;21.54;54.15
11952;BME280;6036;41.840;23.486;2022-07-30T04:25:01;90617.03;;;21.68;53.22
11952;BME280;6036;41.840;23.486;2022-07-30T04:27:27;90638.81;;;22.00;52.66
11952;BME280;6036;41.840;23.486;2022-07-30T04:29:53;90639.16;;;22.02;52.64
11952;BME280;6036;41.840;23.486;2022-07-30T04:32:19;90641.47;;;22.00;53.09
11952;BME280;6036;41.840;23.486;2022-07-30T04:34:50;90637.41;;;22.23;52.21
11952;BME280;6036;41.840;23.486;2022-07-30T04:37:16;90629.78;;;22.55;51.69
11952;BME280;6036;41.840;23.486;2022-07-30T04:39:43;90645.22;;;22.37;51.66
11952;BME280;6036;41.840;23.486;2022-07-30T04:42:09;90641.88;;;22.33;52.55
11952;BME280;6036;41.840;23.486;2022-07-30T04:44:34;90644.44;;;22.40;52.51
11952;BME280;6036;41.840;23.486;2022-07-30T04:47:00;90635.47;;;22.57;51.68
11952;BME280;6036;41.840;23.486;2022-07-30T04:49:26;90639.91;;;22.71;51.34
11952;BME280;6036;41.840;23.486;2022-07-30T04:51:53;90636.63;;;22.86;50.88
11952;BME280;6036;41.840;23.486;2022-07-30T04:54:20;90636.63;;;22.86;50.68
11952;BME280;6036;41.840;23.486;2022-07-30T04:56:48;90634.06;;;23.06;50.55
11952;BME280;6036;41.840;23.486;2022-07-30T04:59:16;90627.84;;;23.12;50.56
11952;BME280;6036;41.840;23.486;2022-07-30T05:01:45;90634.75;;;23.37;50.25
11952;BME280;6036;41.840;23.486;2022-07-30T05:04:12;90632.97;;;23.26;49.82
11952;BME280;6036;41.840;23.486;2022-07-30T05:06:40;90642.66;;;23.44;49.38
11952;BME280;6036;41.840;23.486;2022-07-30T05:09:06;90632.25;;;22.99;50.68
11952;BME280;6036;41.840;23.486;2022-07-30T05:11:32;90629.63;;;22.96;50.78
11952;BME280;6036;41.840;23.486;2022-07-30T05:13:58;90641.84;;;23.47;49.56
11952;BME280;6036;41.840;23.486;2022-07-30T05:16:23;90632.59;;;23.01;50.78
11952;BME280;6036;41.840;23.486;2022-07-30T05:18:49;90635.16;;;22.82;51.58
11952;BME280;6036;41.840;23.486;2022-07-30T05:21:14;90632.19;;;22.76;51.34
11952;BME280;6036;41.840;23.486;2022-07-30T05:23:40;90640.84;;;23.10;51.42
11952;BME280;6036;41.840;23.486;2022-07-30T05:26:06;90643.25;;;23.55;50.36
11952;BME280;6036;41.840;23.486;2022-07-30T05:28:31;90636.66;;;23.82;49.59
11952;BME280;6036;41.840;23.486;2022-07-30T05:30:56;90642.97;;;23.92;49.60
11952;BME280;6036;41.840;23.486;2022-07-30T05:33:22;90646.50;;;24.48;48.23
11952;BME280;6036;41.840;23.486;2022-07-30T05:35:48;90654.72;;;24.77;47.80
11952;BME280;6036;41.840;23.486;2022-07-30T05:38:15;90648.28;;;25.10;47.00
11952;BME280;6036;41.840;23.486;2022-07-30T05:40:41;90652.81;;;24.57;47.72
11952;BME280;6036;41.840;23.486;2022-07-30T05:43:06;90651.13;;;25.03;46.75
11952;BME280;6036;41.840;23.486;2022-07-30T05:45:32;90657.22;;;25.71;45.49
11952;BME280;6036;41.840;23.486;2022-07-30T05:47:57;90648.50;;;25.51;45.27
11952;BME280;6036;41.840;23.486;2022-07-30T05:50:23;90648.81;;;26.02;44.63
11952;BME280;6036;41.840;23.486;2022-07-30T05:52:48;90651.34;;;26.79;42.91
11952;BME280;6036;41.840;23.486;2022-07-30T05:55:13;90654.59;;;27.11;41.74
11952;BME280;6036;41.840;23.486;2022-07-30T05:57:39;90656.66;;;27.33;41.07
11952;BME280;6036;41.840;23.486;2022-07-30T06:00:08;90640.53;;;27.33;41.68
11952;BME280;6036;41.840;23.486;2022-07-30T06:02:33;90639.81;;;27.45;40.26
11952;BME280;6036;41.840;23.486;2022-07-30T06:04:59;90644.09;;;27.67;40.28
11952;BME280;6036;41.840;23.486;2022-07-30T06:07:25;90644.09;;;28.14;39.34
11952;BME280;6036;41.840;23.486;2022-07-30T06:09:51;90642.84;;;28.06;37.87
11952;BME280;6036;41.840;23.486;2022-07-30T06:12:17;90633.88;;;28.44;37.21
11952;BME280;6036;41.840;23.486;2022-07-30T06:14:42;90631.81;;;28.13;38.44
11952;BME280;6036;41.840;23.486;2022-07-30T06:17:08;90637.81;;;27.70;39.05
11952;BME280;6036;41.840;23.486;2022-07-30T06:19:33;90633.00;;;27.65;38.16
11952;BME280;6036;41.840;23.486;2022-07-30T06:21:59;90641.28;;;27.71;38.36
11952;BME280;6036;41.840;23.486;2022-07-30T06:24:24;90645.75;;;27.87;38.62
11952;BME280;6036;41.840;23.486;2022-07-30T06:26:49;90638.59;;;28.39;37.00
11952;BME280;6036;41.840;23.486;2022-07-30T06:29:15;90650.13;;;29.05;35.33
11952;BME280;6036;41.840;23.486;2022-07-30T06:31:40;90651.44;;;29.22;36.33
11952;BME280;6036;41.840;23.486;2022-07-30T06:34:06;90646.50;;;30.09;35.62
11952;BME280;6036;41.840;23.486;2022-07-30T06:36:31;90654.16;;;30.29;34.05
11952;BME280;6036;41.840;23.486;2022-07-30T06:38:57;90662.16;;;29.84;35.43
11952;BME280;6036;41.840;23.486;2022-07-30T06:41:22;90655.97;;;29.25;36.40
11952;BME280;6036;41.840;23.486;2022-07-30T06:43:48;90652.63;;;29.52;35.77
11952;BME280;6036;41.840;23.486;2022-07-30T06:46:15;90655.13;;;29.46;35.93
11952;BME280;6036;41.840;23.486;2022-07-30T06:48:40;90642.56;;;30.10;35.15
11952;BME280;6036;41.840;23.486;2022-07-30T06:51:06;90655.66;;;30.57;35.11
11952;BME280;6036;41.840;23.486;2022-07-30T06:53:31;90647.25;;;31.01;33.39
11952;BME280;6036;41.840;23.486;2022-07-30T06:55:57;90654.69;;;31.33;32.94
11952;BME280;6036;41.840;23.486;2022-07-30T06:58:22;90646.03;;;31.85;32.93
11952;BME280;6036;41.840;23.486;2022-07-30T07:00:48;90646.56;;;31.75;32.58
11952;BME280;6036;41.840;23.486;2022-07-30T07:03:13;90645.91;;;32.12;31.64
11952;BME280;6036;41.840;23.486;2022-07-30T07:05:39;90641.19;;;32.22;30.56
11952;BME280;6036;41.840;23.486;2022-07-30T07:08:04;90635.16;;;32.03;31.68
11952;BME280;6036;41.840;23.486;2022-07-30T07:10:29;90636.38;;;32.41;30.18
11952;BME280;6036;41.840;23.486;2022-07-30T07:12:55;90641.34;;;32.66;30.64
11952;BME280;6036;41.840;23.486;2022-07-30T07:15:21;90636.94;;;32.45;29.74
11952;BME280;6036;41.840;23.486;2022-07-30T07:17:46;90646.25;;;32.91;29.89
11952;BME280;6036;41.840;23.486;2022-07-30T07:20:12;90642.78;;;33.64;29.00
11952;BME280;6036;41.840;23.486;2022-07-30T07:22:37;90637.13;;;33.82;28.19
11952;BME280;6036;41.840;23.486;2022-07-30T07:25:04;90639.69;;;33.71;27.59
11952;BME280;6036;41.840;23.486;2022-07-30T07:27:30;90632.94;;;32.78;28.16
11952;BME280;6036;41.840;23.486;2022-07-30T07:29:55;90621.56;;;33.18;27.69
11952;BME280;6036;41.840;23.486;2022-07-30T07:32:21;90615.91;;;34.00;26.49
11952;BME280;6036;41.840;23.486;2022-07-30T07:34:46;90631.19;;;33.98;27.06
11952;BME280;6036;41.840;23.486;2022-07-30T07:37:11;90621.50;;;32.22;29.48
11952;BME280;6036;41.840;23.486;2022-07-30T07:39:37;90618.81;;;32.89;30.02
11952;BME280;6036;41.840;23.486;2022-07-30T07:42:03;90623.41;;;33.56;28.18
11952;BME280;6036;41.840;23.486;2022-07-30T07:44:28;90617.06;;;33.59;28.14
11952;BME280;6036;41.840;23.486;2022-07-30T07:46:53;90607.19;;;34.11;29.15
11952;BME280;6036;41.840;23.486;2022-07-30T07:49:19;90612.56;;;34.26;25.90
11952;BME280;6036;41.840;23.486;2022-07-30T07:51:44;90606.66;;;34.07;26.17
11952;BME280;6036;41.840;23.486;2022-07-30T07:54:10;90610.28;;;34.85;26.55
11952;BME280;6036;41.840;23.486;2022-07-30T07:56:35;90616.00;;;35.44;25.50
11952;BME280;6036;41.840;23.486;2022-07-30T07:59:00;90607.47;;;35.93;25.49
11952;BME280;6036;41.840;23.486;2022-07-30T08:01:26;90608.63;;;36.18;24.33
11952;BME280;6036;41.840;23.486;2022-07-30T08:03:51;90607.97;;;35.91;25.29
11952;BME280;6036;41.840;23.486;2022-07-30T08:06:17;90601.72;;;36.28;25.40
11952;BME280;6036;41.840;23.486;2022-07-30T08:08:42;90600.84;;;36.47;24.75
11952;BME280;6036;41.840;23.486;2022-07-30T08:11:07;90603.34;;;36.51;24.33
11952;BME280;6036;41.840;23.486;2022-07-30T08:13:33;90604.28;;;35.95;24.46
11952;BME280;6036;41.840;23.486;2022-07-30T08:16:00;90602.38;;;36.06;24.65
11952;BME280;6036;41.840;23.486;2022-07-30T08:18:26;90600.16;;;36.05;25.03
11952;BME280;6036;41.840;23.486;2022-07-30T08:20:51;90592.44;;;36.03;24.47
11952;BME280;6036;41.840;23.486;2022-07-30T08:23:16;90595.78;;;36.24;24.49
11952;BME280;6036;41.840;23.486;2022-07-30T08:25:43;90588.78;;;36.12;24.55
11952;BME280;6036;41.840;23.486;2022-07-30T08:28:09;90591.66;;;35.97;24.98
11952;BME280;6036;41.840;23.486;2022-07-30T08:30:35;90579.78;;;36.48;24.77
11952;BME280;6036;41.840;23.486;2022-07-30T08:33:01;90590.38;;;37.10;24.02
11952;BME280;6036;41.840;23.486;2022-07-30T08:35:26;90588.63;;;37.02;23.17
11952;BME280;6036;41.840;23.486;2022-07-30T08:37:52;90586.38;;;36.95;23.03
11952;BME280;6036;41.840;23.486;2022-07-30T08:40:18;90577.88;;;36.76;23.00
11952;BME280;6036;41.840;23.486;2022-07-30T08:42:44;90584.47;;;37.40;23.67
11952;BME280;6036;41.840;23.486;2022-07-30T08:45:12;90577.25;;;37.59;22.26
11952;BME280;6036;41.840;23.486;2022-07-30T08:47:39;90590.63;;;37.79;21.72
11952;BME280;6036;41.840;23.486;2022-07-30T08:50:06;90586.63;;;38.13;21.19
11952;BME280;6036;41.840;23.486;2022-07-30T08:52:35;90577.22;;;37.14;21.58
11952;BME280;6036;41.840;23.486;2022-07-30T08:55:03;90575.09;;;36.60;22.80
11952;BME280;6036;41.840;23.486;2022-07-30T08:57:30;90572.03;;;37.50;22.37
11952;BME280;6036;41.840;23.486;2022-07-30T08:59:57;90573.28;;;37.49;21.96
11952;BME280;6036;41.840;23.486;2022-07-30T09:02:23;90571.78;;;37.70;21.37
11952;BME280;6036;41.840;23.486;2022-07-30T09:04:48;90566.19;;;38.25;21.60
11952;BME280;6036;41.840;23.486;2022-07-30T09:07:14;90568.63;;;38.46;20.68
11952;BME280;6036;41.840;23.486;2022-07-30T09:09:39;90562.78;;;38.77;20.81
11952;BME280;6036;41.840;23.486;2022-07-30T09:12:31;90564.28;;;38.67;20.24
11952;BME280;6036;41.840;23.486;2022-07-30T09:15:09;90551.09;;;38.71;20.46
11952;BME280;6036;41.840;23.486;2022-07-30T09:17:58;90549.25;;;38.38;20.07
11952;BME280;6036;41.840;23.486;2022-07-30T09:20:32;90548.50;;;38.43;21.32
11952;BME280;6036;41.840;23.486;2022-07-30T09:23:01;90540.09;;;38.82;21.02
11952;BME280;6036;41.840;23.486;2022-07-30T09:25:39;90545.28;;;38.91;21.02
11952;BME280;6036;41.840;23.486;2022-07-30T09:28:06;90533.56;;;38.96;21.35
11952;BME280;6036;41.840;23.486;2022-07-30T09:30:47;90535.38;;;38.30;21.17
11952;BME280;6036;41.840;23.486;2022-07-30T09:33:13;90530.81;;;38.50;21.78
11952;BME280;6036;41.840;23.486;2022-07-30T09:35:40;90527.31;;;39.01;21.50
11952;BME280;6036;41.840;23.486;2022-07-30T09:38:06;90523.09;;;39.35;21.10
11952;BME280;6036;41.840;23.486;2022-07-30T09:40:32;90522.53;;;39.42;20.39
11952;BME280;6036;41.840;23.486;2022-07-30T09:43:07;90520.19;;;39.52;20.07
11952;BME280;6036;41.840;23.486;2022-07-30T09:45:33;90515.88;;;38.51;20.53
11952;BME280;6036;41.840;23.486;2022-07-30T09:47:59;90515.88;;;38.51;21.60
11952;BME280;6036;41.840;23.486;2022-07-30T09:50:25;90509.94;;;38.47;21.31
11952;BME280;6036;41.840;23.486;2022-07-30T09:52:52;90514.16;;;38.94;20.67
11952;BME280;6036;41.840;23.486;2022-07-30T09:55:30;90510.22;;;39.25;20.36
11952;BME280;6036;41.840;23.486;2022-07-30T09:58:00;90508.72;;;37.46;21.11
11952;BME280;6036;41.840;23.486;2022-07-30T10:00:27;90500.28;;;37.44;21.42
11952;BME280;6036;41.840;23.486;2022-07-30T10:02:53;90494.59;;;37.08;21.63
11952;BME280;6036;41.840;23.486;2022-07-30T10:05:20;90486.88;;;37.24;21.90
11952;BME280;6036;41.840;23.486;2022-07-30T10:10:16;90475.75;;;37.05;21.82
11952;BME280;6036;41.840;23.486;2022-07-30T10:12:44;90472.53;;;36.95;23.10
11952;BME280;6036;41.840;23.486;2022-07-30T10:15:10;90479.78;;;36.23;22.23
11952;BME280;6036;41.840;23.486;2022-07-30T10:17:37;90480.00;;;36.08;22.52
11952;BME280;6036;41.840;23.486;2022-07-30T10:20:06;90471.25;;;35.87;22.38
11952;BME280;6036;41.840;23.486;2022-07-30T10:22:33;90482.69;;;36.03;21.94
11952;BME280;6036;41.840;23.486;2022-07-30T10:24:59;90478.34;;;36.33;21.36
11952;BME280;6036;41.840;23.486;2022-07-30T10:27:25;90474.25;;;37.04;21.17
11952;BME280;6036;41.840;23.486;2022-07-30T10:29:51;90473.06;;;38.07;20.36
11952;BME280;6036;41.840;23.486;2022-07-30T10:32:17;90464.53;;;38.27;20.75
11952;BME280;6036;41.840;23.486;2022-07-30T10:34:43;90469.69;;;37.73;19.79
11952;BME280;6036;41.840;23.486;2022-07-30T10:37:09;90469.06;;;38.60;19.82
11952;BME280;6036;41.840;23.486;2022-07-30T10:39:40;90470.16;;;39.22;18.98
11952;BME280;6036;41.840;23.486;2022-07-30T10:47:53;90466.06;;;38.63;19.68
11952;BME280;6036;41.840;23.486;2022-07-30T10:50:22;90458.75;;;38.42;19.30
11952;BME280;6036;41.840;23.486;2022-07-30T10:52:59;90451.16;;;37.33;21.10
11952;BME280;6036;41.840;23.486;2022-07-30T10:55:30;90463.66;;;37.97;21.27
11952;BME280;6036;41.840;23.486;2022-07-30T10:58:12;90455.47;;;38.02;20.19
11952;BME280;6036;41.840;23.486;2022-07-30T11:03:28;90446.97;;;38.11;20.75
11952;BME280;6036;41.840;23.486;2022-07-30T11:08:42;90447.91;;;38.19;21.45
11952;BME280;6036;41.840;23.486;2022-07-30T11:14:04;90443.03;;;38.01;21.02
11952;BME280;6036;41.840;23.486;2022-07-30T11:19:07;90439.56;;;35.96;23.15
11952;BME280;6036;41.840;23.486;2022-07-30T11:21:34;90435.28;;;36.53;22.14
11952;BME280;6036;41.840;23.486;2022-07-30T11:24:00;90434.78;;;36.94;22.55
11952;BME280;6036;41.840;23.486;2022-07-30T11:29:39;90433.31;;;36.98;23.29
11952;BME280;6036;41.840;23.486;2022-07-30T11:35:17;90431.81;;;36.97;23.66
11952;BME280;6036;41.840;23.486;2022-07-30T11:38:04;90427.00;;;37.64;22.88
11952;BME280;6036;41.840;23.486;2022-07-30T11:40:38;90418.28;;;37.66;22.59
11952;BME280;6036;41.840;23.486;2022-07-30T11:43:21;90413.66;;;37.44;23.13
11952;BME280;6036;41.840;23.486;2022-07-30T11:48:32;90412.22;;;36.60;25.09
11952;BME280;6036;41.840;23.486;2022-07-30T11:50:58;90406.97;;;36.34;25.21
11952;BME280;6036;41.840;23.486;2022-07-30T11:53:24;90411.41;;;36.10;24.95
11952;BME280;6036;41.840;23.486;2022-07-30T11:55:55;90410.78;;;35.83;26.17
11952;BME280;6036;41.840;23.486;2022-07-30T11:58:25;90418.22;;;35.83;25.86
11952;BME280;6036;41.840;23.486;2022-07-30T12:00:52;90406.44;;;34.70;26.75
11952;BME280;6036;41.840;23.486;2022-07-30T12:03:20;90403.94;;;33.09;29.20
11952;BME280;6036;41.840;23.486;2022-07-30T12:05:47;90385.28;;;32.61;30.31
11952;BME280;6036;41.840;23.486;2022-07-30T12:08:14;90401.44;;;32.56;30.32
11952;BME280;6036;41.840;23.486;2022-07-30T12:10:40;90396.28;;;33.07;29.27
11952;BME280;6036;41.840;23.486;2022-07-30T12:13:07;90400.69;;;33.85;28.86
11952;BME280;6036;41.840;23.486;2022-07-30T12:15:36;90396.97;;;34.60;26.82
11952;BME280;6036;41.840;23.486;2022-07-30T12:18:05;90394.97;;;34.92;27.11
11952;BME280;6036;41.840;23.486;2022-07-30T12:20:32;90400.06;;;35.10;26.42
11952;BME280;6036;41.840;23.486;2022-07-30T12:22:58;90392.25;;;35.34;26.14
11952;BME280;6036;41.840;23.486;2022-07-30T12:25:24;90386.88;;;35.45;26.16
11952;BME280;6036;41.840;23.486;2022-07-30T12:27:51;90387.53;;;35.29;26.98
11952;BME280;6036;41.840;23.486;2022-07-30T12:30:18;90381.25;;;35.12;27.15
11952;BME280;6036;41.840;23.486;2022-07-30T12:32:44;90372.03;;;34.61;28.66
11952;BME280;6036;41.840;23.486;2022-07-30T12:35:10;90378.88;;;34.26;27.63
11952;BME280;6036;41.840;23.486;2022-07-30T12:37:36;90374.97;;;33.81;29.20
11952;BME280;6036;41.840;23.486;2022-07-30T12:40:13;90379.19;;;33.82;29.27
11952;BME280;6036;41.840;23.486;2022-07-30T12:42:50;90369.47;;;33.75;29.07
11952;BME280;6036;41.840;23.486;2022-07-30T12:45:29;90370.13;;;33.90;28.39
11952;BME280;6036;41.840;23.486;2022-07-30T12:47:57;90372.47;;;34.03;27.31
11952;BME280;6036;41.840;23.486;2022-07-30T12:50:23;90366.44;;;33.93;26.93
11952;BME280;6036;41.840;23.486;2022-07-30T12:52:51;90367.25;;;33.74;27.96
11952;BME280;6036;41.840;23.486;2022-07-30T12:55:18;90372.19;;;34.01;27.45
11952;BME280;6036;41.840;23.486;2022-07-30T12:57:54;90361.97;;;33.90;27.50
11952;BME280;6036;41.840;23.486;2022-07-30T13:00:21;90357.94;;;34.32;26.87
11952;BME280;6036;41.840;23.486;2022-07-30T13:02:48;90358.19;;;34.34;26.74
11952;BME280;6036;41.840;23.486;2022-07-30T13:05:13;90358.09;;;33.97;27.63
11952;BME280;6036;41.840;23.486;2022-07-30T13:07:56;90353.84;;;33.65;28.20
11952;BME280;6036;41.840;23.486;2022-07-30T13:10:22;90349.69;;;33.69;28.71
11952;BME280;6036;41.840;23.486;2022-07-30T13:12:48;90337.88;;;33.72;28.26
11952;BME280;6036;41.840;23.486;2022-07-30T13:15:19;90349.19;;;33.96;28.08
11952;BME280;6036;41.840;23.486;2022-07-30T13:17:44;90346.81;;;34.04;27.47
11952;BME280;6036;41.840;23.486;2022-07-30T13:20:10;90351.69;;;34.26;27.38
11952;BME280;6036;41.840;23.486;2022-07-30T13:22:36;90355.38;;;33.97;27.74
11952;BME280;6036;41.840;23.486;2022-07-30T13:25:02;90348.50;;;34.01;27.10
11952;BME280;6036;41.840;23.486;2022-07-30T13:27:27;90345.75;;;33.96;27.70
11952;BME280;6036;41.840;23.486;2022-07-30T13:29:53;90353.81;;;33.90;27.48
11952;BME280;6036;41.840;23.486;2022-07-30T13:32:18;90347.00;;;34.00;27.21